createdAt,value
2022-08-16T00:00:03.719Z,970.01
2022-08-16T00:01:01.408Z,969.98
2022-08-16T00:02:01.454Z,969.94
2022-08-16T00:03:02.406Z,969.92
2022-08-16T00:04:01.371Z,969.92
2022-08-16T00:05:01.357Z,969.91
2022-08-16T00:06:01.343Z,969.97
2022-08-16T00:07:01.329Z,969.96
2022-08-16T00:08:01.314Z,969.94
2022-08-16T00:09:01.296Z,969.95
2022-08-16T00:10:01.293Z,969.97
2022-08-16T00:11:01.277Z,970.00
2022-08-16T00:12:01.263Z,970.05
2022-08-16T00:13:01.247Z,970.11
2022-08-16T00:14:01.240Z,970.10
2022-08-16T00:15:02.242Z,970.08
2022-08-16T00:16:01.206Z,970.16
2022-08-16T00:17:16.267Z,970.15
2022-08-16T00:18:02.205Z,970.19
2022-08-16T00:19:01.166Z,970.10
2022-08-16T00:20:01.162Z,970.11
2022-08-16T00:21:01.146Z,970.08
2022-08-16T00:22:06.867Z,970.06
2022-08-16T00:23:02.131Z,970.08
2022-08-16T00:24:04.650Z,970.10
2022-08-16T00:25:01.080Z,970.12
2022-08-16T00:26:34.835Z,970.15
2022-08-16T00:27:02.083Z,970.17
2022-08-16T00:28:01.049Z,970.19
2022-08-16T00:29:01.029Z,970.23
2022-08-16T00:30:19.083Z,970.19
2022-08-16T00:31:02.027Z,970.25
2022-08-16T00:32:06.145Z,970.17
2022-08-16T00:33:00.971Z,970.17
2022-08-16T00:34:00.962Z,970.22
2022-08-16T00:35:01.733Z,970.28
2022-08-16T00:36:00.941Z,970.15
2022-08-16T00:37:00.923Z,970.20
2022-08-16T00:38:00.922Z,970.24
2022-08-16T00:39:01.916Z,970.21
2022-08-16T00:40:00.954Z,970.23
2022-08-16T00:41:00.863Z,970.23
2022-08-16T00:42:00.862Z,970.27
2022-08-16T00:43:00.862Z,970.27
2022-08-16T00:44:00.832Z,970.26
2022-08-16T00:45:00.820Z,970.26
2022-08-16T00:46:01.075Z,970.31
2022-08-16T00:47:06.347Z,970.16
2022-08-16T00:48:00.771Z,970.25
2022-08-16T00:49:00.759Z,970.27
2022-08-16T00:50:00.743Z,970.39
2022-08-16T00:51:00.729Z,970.33
2022-08-16T00:52:00.715Z,970.32
2022-08-16T00:53:00.699Z,970.32
2022-08-16T00:54:00.693Z,970.32
2022-08-16T00:55:00.678Z,970.27
2022-08-16T00:56:00.669Z,970.23
2022-08-16T00:57:00.652Z,970.31
2022-08-16T00:58:00.958Z,970.37
2022-08-16T00:59:01.350Z,970.35
2022-08-16T01:00:01.092Z,970.37
2022-08-16T01:01:00.616Z,970.41
2022-08-16T01:02:00.581Z,970.37
2022-08-16T01:03:01.592Z,970.36
2022-08-16T01:04:00.558Z,970.38
2022-08-16T01:05:11.241Z,970.29
2022-08-16T01:06:40.321Z,970.30
2022-08-16T01:07:02.661Z,970.31
2022-08-16T01:08:00.506Z,970.32
2022-08-16T01:09:00.544Z,970.31
2022-08-16T01:10:00.482Z,970.24
2022-08-16T01:11:02.611Z,970.29
2022-08-16T01:12:00.442Z,970.32
2022-08-16T01:13:00.462Z,970.41
2022-08-16T01:14:00.420Z,970.35
2022-08-16T01:15:00.418Z,970.34
2022-08-16T01:16:00.392Z,970.40
2022-08-16T01:17:00.381Z,970.37
2022-08-16T01:18:00.366Z,970.37
2022-08-16T01:19:00.349Z,970.37
2022-08-16T01:20:00.595Z,970.38
2022-08-16T01:21:00.325Z,970.35
2022-08-16T01:22:46.977Z,970.33
2022-08-16T01:23:01.665Z,970.30
2022-08-16T01:24:02.131Z,970.34
2022-08-16T01:25:00.274Z,970.29
2022-08-16T01:26:34.367Z,970.27
2022-08-16T01:27:03.984Z,970.23
2022-08-16T01:28:00.225Z,970.22
2022-08-16T01:29:00.219Z,970.28
2022-08-16T01:30:00.322Z,970.18
2022-08-16T01:31:00.193Z,970.18
2022-08-16T01:32:00.183Z,970.24
2022-08-16T01:33:14.396Z,970.22
2022-08-16T01:34:01.175Z,970.27
2022-08-16T01:35:00.131Z,970.26
2022-08-16T01:36:00.118Z,970.29
2022-08-16T01:37:00.111Z,970.32
2022-08-16T01:38:00.095Z,970.29
2022-08-16T01:39:00.083Z,970.31
2022-08-16T01:40:00.134Z,970.36
2022-08-16T01:41:02.046Z,970.32
2022-08-16T01:42:00.044Z,970.39
2022-08-16T01:43:00.025Z,970.36
2022-08-16T01:44:01.003Z,970.36
2022-08-16T01:45:00.001Z,970.37
2022-08-16T01:45:59.989Z,970.33
2022-08-16T01:47:00.999Z,970.27
2022-08-16T01:47:59.958Z,970.40
2022-08-16T01:48:59.950Z,970.34
2022-08-16T01:50:42.186Z,970.42
2022-08-16T01:51:08.264Z,970.41
2022-08-16T01:52:00.955Z,970.35
2022-08-16T01:52:59.888Z,970.34
2022-08-16T01:53:59.872Z,970.30
2022-08-16T01:54:59.859Z,970.31
2022-08-16T01:55:59.843Z,970.30
2022-08-16T01:56:59.835Z,970.28
2022-08-16T01:57:59.821Z,970.28
2022-08-16T01:58:59.812Z,970.34
2022-08-16T01:59:59.800Z,970.26
2022-08-16T02:00:59.785Z,970.25
2022-08-16T02:02:00.588Z,970.25
2022-08-16T02:02:59.759Z,970.24
2022-08-16T02:04:10.243Z,970.24
2022-08-16T02:05:00.751Z,970.24
2022-08-16T02:05:59.710Z,970.22
2022-08-16T02:06:59.703Z,970.34
2022-08-16T02:07:59.692Z,970.29
2022-08-16T02:08:59.678Z,970.31
2022-08-16T02:10:02.136Z,970.29
2022-08-16T02:10:59.644Z,970.36
2022-08-16T02:11:59.627Z,970.27
2022-08-16T02:13:01.165Z,970.32
2022-08-16T02:13:59.600Z,970.28
2022-08-16T02:14:59.594Z,970.33
2022-08-16T02:15:59.588Z,970.26
2022-08-16T02:16:59.568Z,970.28
2022-08-16T02:18:01.441Z,970.37
2022-08-16T02:18:59.539Z,970.29
2022-08-16T02:20:00.606Z,970.28
2022-08-16T02:20:59.576Z,970.31
2022-08-16T02:22:08.825Z,970.20
2022-08-16T02:23:01.541Z,970.26
2022-08-16T02:23:59.472Z,970.17
2022-08-16T02:24:59.458Z,970.14
2022-08-16T02:26:00.021Z,970.17
2022-08-16T02:26:59.433Z,970.20
2022-08-16T02:27:59.410Z,970.12
2022-08-16T02:28:59.405Z,970.13
2022-08-16T02:30:05.436Z,970.17
2022-08-16T02:31:01.369Z,970.21
2022-08-16T02:32:03.643Z,970.19
2022-08-16T02:33:00.366Z,970.20
2022-08-16T02:33:59.335Z,970.19
2022-08-16T02:35:00.344Z,970.22
2022-08-16T02:36:00.209Z,970.24
2022-08-16T02:36:59.288Z,970.22
2022-08-16T02:38:08.679Z,970.25
2022-08-16T02:39:00.292Z,970.25
2022-08-16T02:39:59.290Z,970.23
2022-08-16T02:40:59.241Z,970.21
2022-08-16T02:41:59.230Z,970.19
2022-08-16T02:42:59.213Z,970.19
2022-08-16T02:43:59.204Z,970.21
2022-08-16T02:44:59.182Z,970.18
2022-08-16T02:45:59.172Z,970.20
2022-08-16T02:46:59.158Z,970.17
2022-08-16T02:48:01.677Z,970.13
2022-08-16T02:49:00.392Z,970.05
2022-08-16T02:50:53.659Z,970.09
2022-08-16T02:51:06.766Z,969.99
2022-08-16T02:52:00.117Z,970.07
2022-08-16T02:52:59.077Z,970.05
2022-08-16T02:53:59.198Z,970.09
2022-08-16T02:54:59.047Z,970.06
2022-08-16T02:55:59.216Z,970.06
2022-08-16T02:56:59.017Z,970.04
2022-08-16T02:57:59.011Z,970.10
2022-08-16T02:58:58.989Z,970.05
2022-08-16T02:59:58.983Z,970.01
2022-08-16T03:00:59.031Z,970.00
2022-08-16T03:01:59.014Z,969.98
2022-08-16T03:02:58.942Z,969.94
2022-08-16T03:04:41.538Z,969.98
2022-08-16T03:04:59.938Z,969.96
2022-08-16T03:05:58.910Z,970.01
2022-08-16T03:06:58.887Z,969.97
2022-08-16T03:07:58.876Z,970.00
2022-08-16T03:08:58.865Z,969.95
2022-08-16T03:10:00.472Z,969.94
2022-08-16T03:10:59.226Z,969.92
2022-08-16T03:11:58.817Z,969.92
2022-08-16T03:12:59.185Z,969.86
2022-08-16T03:13:58.791Z,969.88
2022-08-16T03:14:58.779Z,969.89
2022-08-16T03:15:58.768Z,969.89
2022-08-16T03:17:00.735Z,969.91
2022-08-16T03:17:58.747Z,969.90
2022-08-16T03:18:58.726Z,969.90
2022-08-16T03:20:02.567Z,969.89
2022-08-16T03:20:58.693Z,969.94
2022-08-16T03:21:58.686Z,969.94
2022-08-16T03:22:58.667Z,969.82
2022-08-16T03:23:58.657Z,969.89
2022-08-16T03:24:58.645Z,969.90
2022-08-16T03:25:58.629Z,969.92
2022-08-16T03:26:58.762Z,969.87
2022-08-16T03:27:58.607Z,969.87
2022-08-16T03:28:58.595Z,969.77
2022-08-16T03:29:58.579Z,969.93
2022-08-16T03:30:58.565Z,969.87
2022-08-16T03:31:59.293Z,969.88
2022-08-16T03:32:58.536Z,969.80
2022-08-16T03:33:58.528Z,969.82
2022-08-16T03:34:58.506Z,969.88
2022-08-16T03:35:58.498Z,969.84
2022-08-16T03:36:58.479Z,969.90
2022-08-16T03:38:02.631Z,969.82
2022-08-16T03:38:58.449Z,969.87
2022-08-16T03:40:02.714Z,969.79
2022-08-16T03:40:58.424Z,969.85
2022-08-16T03:42:00.090Z,969.76
2022-08-16T03:43:00.450Z,969.83
2022-08-16T03:43:59.421Z,969.76
2022-08-16T03:45:03.463Z,969.82
2022-08-16T03:45:58.366Z,969.81
2022-08-16T03:46:58.377Z,969.82
2022-08-16T03:47:59.958Z,969.77
2022-08-16T03:48:58.316Z,969.79
2022-08-16T03:49:59.399Z,969.78
2022-08-16T03:51:00.145Z,969.74
2022-08-16T03:51:58.291Z,969.71
2022-08-16T03:53:05.399Z,969.78
2022-08-16T03:54:01.169Z,969.80
2022-08-16T03:54:59.423Z,969.79
2022-08-16T03:55:58.234Z,969.84
2022-08-16T03:56:58.736Z,969.80
2022-08-16T03:57:58.199Z,969.77
2022-08-16T03:58:58.183Z,969.81
2022-08-16T03:59:58.166Z,969.81
2022-08-16T04:00:59.426Z,969.80
2022-08-16T04:01:58.139Z,969.78
2022-08-16T04:02:58.124Z,969.82
2022-08-16T04:03:58.119Z,969.86
2022-08-16T04:04:58.095Z,969.81
2022-08-16T04:05:58.091Z,969.76
2022-08-16T04:06:58.075Z,969.81
2022-08-16T04:07:58.060Z,969.75
2022-08-16T04:08:58.049Z,969.77
2022-08-16T04:09:58.033Z,969.72
2022-08-16T04:10:58.193Z,969.76
2022-08-16T04:11:58.001Z,969.79
2022-08-16T04:13:04.152Z,969.80
2022-08-16T04:14:33.019Z,969.81
2022-08-16T04:14:58.989Z,969.95
2022-08-16T04:15:57.956Z,969.92
2022-08-16T04:16:57.932Z,969.85
2022-08-16T04:17:57.932Z,969.84
2022-08-16T04:19:02.170Z,969.86
2022-08-16T04:19:59.897Z,969.84
2022-08-16T04:20:57.879Z,969.86
2022-08-16T04:21:57.865Z,969.87
2022-08-16T04:22:57.850Z,969.89
2022-08-16T04:23:57.837Z,969.92
2022-08-16T04:24:59.288Z,969.98
2022-08-16T04:25:57.815Z,969.98
2022-08-16T04:26:57.793Z,970.02
2022-08-16T04:27:58.310Z,970.04
2022-08-16T04:29:15.033Z,970.08
2022-08-16T04:30:02.811Z,970.06
2022-08-16T04:30:57.735Z,970.06
2022-08-16T04:31:58.295Z,970.07
2022-08-16T04:32:57.706Z,970.12
2022-08-16T04:33:57.697Z,970.14
2022-08-16T04:34:57.680Z,970.05
2022-08-16T04:35:57.676Z,970.09
2022-08-16T04:36:57.652Z,970.09
2022-08-16T04:37:57.644Z,970.08
2022-08-16T04:38:57.627Z,970.08
2022-08-16T04:39:57.702Z,970.11
2022-08-16T04:40:57.934Z,970.10
2022-08-16T04:41:57.592Z,970.10
2022-08-16T04:42:57.576Z,970.11
2022-08-16T04:43:57.561Z,970.13
2022-08-16T04:44:57.690Z,970.14
2022-08-16T04:46:00.208Z,970.17
2022-08-16T04:47:02.528Z,970.17
2022-08-16T04:47:57.508Z,970.16
2022-08-16T04:48:57.499Z,970.11
2022-08-16T04:49:57.477Z,970.21
2022-08-16T04:50:57.458Z,970.17
2022-08-16T04:51:57.445Z,970.15
2022-08-16T04:52:57.429Z,970.13
2022-08-16T04:53:57.419Z,970.10
2022-08-16T04:54:57.420Z,970.13
2022-08-16T04:55:57.399Z,970.17
2022-08-16T04:56:57.378Z,970.16
2022-08-16T04:57:57.365Z,970.17
2022-08-16T04:58:57.614Z,970.18
2022-08-16T04:59:57.341Z,970.23
2022-08-16T05:00:57.324Z,970.17
2022-08-16T05:01:58.712Z,970.23
2022-08-16T05:02:58.915Z,970.23
2022-08-16T05:04:00.704Z,970.31
2022-08-16T05:04:57.262Z,970.32
2022-08-16T05:06:04.999Z,970.26
2022-08-16T05:06:58.256Z,970.25
2022-08-16T05:07:59.436Z,970.34
2022-08-16T05:08:57.209Z,970.33
2022-08-16T05:09:57.197Z,970.39
2022-08-16T05:10:58.747Z,970.35
2022-08-16T05:11:57.799Z,970.36
2022-08-16T05:12:57.159Z,970.36
2022-08-16T05:13:57.149Z,970.36
2022-08-16T05:15:01.823Z,970.37
2022-08-16T05:15:57.113Z,970.39
2022-08-16T05:16:57.102Z,970.42
2022-08-16T05:17:59.061Z,970.36
2022-08-16T05:18:58.437Z,970.36
2022-08-16T05:19:58.494Z,970.37
2022-08-16T05:21:09.430Z,970.31
2022-08-16T05:21:58.135Z,970.34
2022-08-16T05:22:57.023Z,970.37
2022-08-16T05:24:00.080Z,970.36
2022-08-16T05:24:56.993Z,970.38
2022-08-16T05:25:56.980Z,970.40
2022-08-16T05:26:56.975Z,970.34
2022-08-16T05:27:56.953Z,970.38
2022-08-16T05:28:56.948Z,970.35
2022-08-16T05:30:01.943Z,970.39
2022-08-16T05:30:57.936Z,970.29
2022-08-16T05:31:56.903Z,970.26
2022-08-16T05:32:56.890Z,970.29
2022-08-16T05:33:56.875Z,970.29
2022-08-16T05:34:56.860Z,970.27
2022-08-16T05:35:56.840Z,970.31
2022-08-16T05:36:56.829Z,970.28
2022-08-16T05:37:56.814Z,970.28
2022-08-16T05:38:58.151Z,970.32
2022-08-16T05:39:56.809Z,970.18
2022-08-16T05:40:59.531Z,970.27
2022-08-16T05:41:56.760Z,970.27
2022-08-16T05:42:56.893Z,970.33
2022-08-16T05:43:59.171Z,970.25
2022-08-16T05:44:56.728Z,970.31
2022-08-16T05:45:56.710Z,970.31
2022-08-16T05:46:56.698Z,970.29
2022-08-16T05:47:59.510Z,970.30
2022-08-16T05:49:01.725Z,970.32
2022-08-16T05:49:57.681Z,970.31
2022-08-16T05:50:56.639Z,970.25
2022-08-16T05:51:56.625Z,970.26
2022-08-16T05:52:56.617Z,970.24
2022-08-16T05:53:56.602Z,970.21
2022-08-16T05:54:58.492Z,970.23
2022-08-16T05:55:56.574Z,970.26
2022-08-16T05:56:56.565Z,970.28
2022-08-16T05:57:56.549Z,970.29
2022-08-16T05:58:56.533Z,970.24
2022-08-16T06:00:00.284Z,970.23
2022-08-16T06:00:56.504Z,970.23
2022-08-16T06:01:56.563Z,970.21
2022-08-16T06:02:56.482Z,970.15
2022-08-16T06:03:56.462Z,970.28
2022-08-16T06:04:56.453Z,970.28
2022-08-16T06:05:56.436Z,970.17
2022-08-16T06:06:57.478Z,970.23
2022-08-16T06:07:58.270Z,970.25
2022-08-16T06:08:56.403Z,970.28
2022-08-16T06:09:56.403Z,970.23
2022-08-16T06:11:04.654Z,970.24
2022-08-16T06:11:57.383Z,970.20
2022-08-16T06:12:56.415Z,970.24
2022-08-16T06:13:56.332Z,970.23
2022-08-16T06:14:56.319Z,970.25
2022-08-16T06:15:56.305Z,970.29
2022-08-16T06:16:56.297Z,970.31
2022-08-16T06:17:57.304Z,970.25
2022-08-16T06:18:56.272Z,970.25
2022-08-16T06:19:56.249Z,970.29
2022-08-16T06:20:56.239Z,970.28
2022-08-16T06:21:56.222Z,970.29
2022-08-16T06:22:58.769Z,970.25
2022-08-16T06:23:57.228Z,970.29
2022-08-16T06:24:56.209Z,970.27
2022-08-16T06:25:56.172Z,970.24
2022-08-16T06:26:57.858Z,970.33
2022-08-16T06:27:57.582Z,970.27
2022-08-16T06:28:56.132Z,970.37
2022-08-16T06:29:56.115Z,970.37
2022-08-16T06:30:56.112Z,970.40
2022-08-16T06:31:56.091Z,970.32
2022-08-16T06:32:56.083Z,970.28
2022-08-16T06:33:56.065Z,970.26
2022-08-16T06:35:02.863Z,970.33
2022-08-16T06:35:59.476Z,970.34
2022-08-16T06:36:59.393Z,970.38
2022-08-16T06:37:56.010Z,970.36
2022-08-16T06:38:56.968Z,970.35
2022-08-16T06:39:56.072Z,970.38
2022-08-16T06:40:55.977Z,970.45
2022-08-16T06:41:55.958Z,970.41
2022-08-16T06:42:57.592Z,970.41
2022-08-16T06:43:55.926Z,970.35
2022-08-16T06:44:55.915Z,970.38
2022-08-16T06:45:55.901Z,970.41
2022-08-16T06:46:55.896Z,970.45
2022-08-16T06:47:56.418Z,970.42
2022-08-16T06:48:55.871Z,970.40
2022-08-16T06:49:55.852Z,970.39
2022-08-16T06:50:55.843Z,970.47
2022-08-16T06:52:03.146Z,970.40
2022-08-16T06:53:17.192Z,970.40
2022-08-16T06:53:56.822Z,970.34
2022-08-16T06:54:55.784Z,970.38
2022-08-16T06:55:55.768Z,970.34
2022-08-16T06:56:55.761Z,970.45
2022-08-16T06:57:55.742Z,970.41
2022-08-16T06:58:55.738Z,970.47
2022-08-16T06:59:58.379Z,970.46
2022-08-16T07:00:55.801Z,970.32
2022-08-16T07:01:58.270Z,970.27
2022-08-16T07:02:56.085Z,970.32
2022-08-16T07:03:57.070Z,970.25
2022-08-16T07:04:55.652Z,970.26
2022-08-16T07:05:55.636Z,970.28
2022-08-16T07:06:55.632Z,970.31
2022-08-16T07:07:55.609Z,970.31
2022-08-16T07:08:55.602Z,970.33
2022-08-16T07:09:55.590Z,970.20
2022-08-16T07:10:55.611Z,970.24
2022-08-16T07:11:55.559Z,970.25
2022-08-16T07:13:03.356Z,970.24
2022-08-16T07:14:03.701Z,970.32
2022-08-16T07:14:59.947Z,970.28
2022-08-16T07:15:55.510Z,970.26
2022-08-16T07:16:55.496Z,970.27
2022-08-16T07:17:55.484Z,970.29
2022-08-16T07:18:58.761Z,970.28
2022-08-16T07:20:30.177Z,970.20
2022-08-16T07:20:59.995Z,970.29
2022-08-16T07:21:59.704Z,970.29
2022-08-16T07:22:59.129Z,970.30
2022-08-16T07:23:57.991Z,970.23
2022-08-16T07:24:56.412Z,970.29
2022-08-16T07:25:55.377Z,970.31
2022-08-16T07:26:55.364Z,970.27
2022-08-16T07:27:55.347Z,970.28
2022-08-16T07:28:55.339Z,970.32
2022-08-16T07:29:56.348Z,970.24
2022-08-16T07:30:55.318Z,970.19
2022-08-16T07:31:55.299Z,970.21
2022-08-16T07:32:55.280Z,970.22
2022-08-16T07:33:55.344Z,970.22
2022-08-16T07:34:55.260Z,970.17
2022-08-16T07:35:55.239Z,970.18
2022-08-16T07:36:58.216Z,970.15
2022-08-16T07:37:55.284Z,970.18
2022-08-16T07:38:55.206Z,970.12
2022-08-16T07:39:55.241Z,970.19
2022-08-16T07:41:09.734Z,970.16
2022-08-16T07:41:56.188Z,970.18
2022-08-16T07:42:55.180Z,970.21
2022-08-16T07:43:55.133Z,970.19
2022-08-16T07:44:55.124Z,970.15
2022-08-16T07:45:55.112Z,970.25
2022-08-16T07:46:55.479Z,970.16
2022-08-16T07:47:55.080Z,970.18
2022-08-16T07:48:55.169Z,970.17
2022-08-16T07:49:57.935Z,970.18
2022-08-16T07:50:58.934Z,970.24
2022-08-16T07:51:56.143Z,970.19
2022-08-16T07:52:55.027Z,970.22
2022-08-16T07:54:02.599Z,970.23
2022-08-16T07:54:56.017Z,970.29
2022-08-16T07:55:54.976Z,970.23
2022-08-16T07:56:54.973Z,970.24
2022-08-16T07:58:01.106Z,970.12
2022-08-16T07:58:57.921Z,970.22
2022-08-16T07:59:57.157Z,970.17
2022-08-16T08:00:54.968Z,970.17
2022-08-16T08:01:54.898Z,970.11
2022-08-16T08:02:54.898Z,970.18
2022-08-16T08:03:54.878Z,970.10
2022-08-16T08:04:54.863Z,970.14
2022-08-16T08:05:54.853Z,970.15
2022-08-16T08:06:54.836Z,970.08
2022-08-16T08:07:54.821Z,970.16
2022-08-16T08:08:57.230Z,970.12
2022-08-16T08:09:54.798Z,970.15
2022-08-16T08:10:54.795Z,970.18
2022-08-16T08:12:00.925Z,970.19
2022-08-16T08:12:55.779Z,970.23
2022-08-16T08:13:54.750Z,970.18
2022-08-16T08:14:54.747Z,970.24
2022-08-16T08:15:54.733Z,970.26
2022-08-16T08:16:54.721Z,970.30
2022-08-16T08:17:54.708Z,970.27
2022-08-16T08:18:56.041Z,970.33
2022-08-16T08:19:55.703Z,970.30
2022-08-16T08:20:59.608Z,970.29
2022-08-16T08:21:59.258Z,970.29
2022-08-16T08:23:00.664Z,970.26
2022-08-16T08:23:54.622Z,970.25
2022-08-16T08:24:59.091Z,970.24
2022-08-16T08:25:55.810Z,970.24
2022-08-16T08:26:54.587Z,970.24
2022-08-16T08:27:57.530Z,970.21
2022-08-16T08:28:54.567Z,970.22
2022-08-16T08:30:50.610Z,970.29
2022-08-16T08:31:01.129Z,970.23
2022-08-16T08:31:55.547Z,970.32
2022-08-16T08:32:59.992Z,970.24
2022-08-16T08:33:55.521Z,970.29
2022-08-16T08:34:54.497Z,970.22
2022-08-16T08:35:54.479Z,970.29
2022-08-16T08:36:54.742Z,970.24
2022-08-16T08:37:56.269Z,970.32
2022-08-16T08:38:54.443Z,970.24
2022-08-16T08:39:55.150Z,970.20
2022-08-16T08:40:54.413Z,970.14
2022-08-16T08:41:55.079Z,970.18
2022-08-16T08:42:57.615Z,970.18
2022-08-16T08:43:54.379Z,970.24
2022-08-16T08:44:54.372Z,970.29
2022-08-16T08:45:54.352Z,970.28
2022-08-16T08:47:00.703Z,970.34
2022-08-16T08:47:58.613Z,970.36
2022-08-16T08:48:59.644Z,970.26
2022-08-16T08:49:58.097Z,970.19
2022-08-16T08:50:54.302Z,970.16
2022-08-16T08:51:54.289Z,970.36
2022-08-16T08:52:54.277Z,970.28
2022-08-16T08:53:57.353Z,970.24
2022-08-16T08:54:54.245Z,970.36
2022-08-16T08:55:59.248Z,970.28
2022-08-16T08:56:54.224Z,970.26
2022-08-16T08:57:54.205Z,970.16
2022-08-16T08:58:58.302Z,970.17
2022-08-16T08:59:54.196Z,970.30
2022-08-16T09:00:54.174Z,970.18
2022-08-16T09:01:58.148Z,970.24
2022-08-16T09:02:54.405Z,970.25
2022-08-16T09:03:54.160Z,970.20
2022-08-16T09:04:54.132Z,970.16
2022-08-16T09:05:54.119Z,970.15
2022-08-16T09:06:54.112Z,970.16
2022-08-16T09:08:00.413Z,970.12
2022-08-16T09:08:55.102Z,970.30
2022-08-16T09:10:06.144Z,970.27
2022-08-16T09:11:02.287Z,970.20
2022-08-16T09:12:06.360Z,970.04
2022-08-16T09:12:55.044Z,970.16
2022-08-16T09:13:54.012Z,970.25
2022-08-16T09:14:54.003Z,970.23
2022-08-16T09:15:53.986Z,970.19
2022-08-16T09:17:01.580Z,970.25
2022-08-16T09:17:55.103Z,970.20
2022-08-16T09:18:54.019Z,970.35
2022-08-16T09:19:55.624Z,970.22
2022-08-16T09:20:58.389Z,970.20
2022-08-16T09:21:55.981Z,970.21
2022-08-16T09:22:54.485Z,970.16
2022-08-16T09:23:53.892Z,970.12
2022-08-16T09:24:54.206Z,970.19
2022-08-16T09:25:54.892Z,970.17
2022-08-16T09:26:53.858Z,969.98
2022-08-16T09:27:58.038Z,970.05
2022-08-16T09:29:15.049Z,970.07
2022-08-16T09:30:00.397Z,970.05
2022-08-16T09:30:54.823Z,970.12
2022-08-16T09:31:53.891Z,970.10
2022-08-16T09:32:53.786Z,970.16
2022-08-16T09:33:53.771Z,970.15
2022-08-16T09:34:53.762Z,970.23
2022-08-16T09:35:54.414Z,970.24
2022-08-16T09:36:54.550Z,970.12
2022-08-16T09:38:00.968Z,970.17
2022-08-16T09:38:59.944Z,970.26
2022-08-16T09:39:53.730Z,970.20
2022-08-16T09:40:53.714Z,970.16
2022-08-16T09:41:54.263Z,970.25
2022-08-16T09:42:56.059Z,970.27
2022-08-16T09:44:00.612Z,970.28
2022-08-16T09:45:11.227Z,970.28
2022-08-16T09:45:54.693Z,970.33
2022-08-16T09:46:57.550Z,970.21
2022-08-16T09:47:57.120Z,970.25
2022-08-16T09:48:53.593Z,970.25
2022-08-16T09:49:53.578Z,970.31
2022-08-16T09:50:53.559Z,970.27
2022-08-16T09:51:53.698Z,970.43
2022-08-16T09:52:53.534Z,970.31
2022-08-16T09:53:53.723Z,970.37
2022-08-16T09:54:53.508Z,970.29
2022-08-16T09:55:53.502Z,970.32
2022-08-16T09:56:53.851Z,970.31
2022-08-16T09:57:53.478Z,970.28
2022-08-16T09:59:04.848Z,970.26
2022-08-16T09:59:56.510Z,970.27
2022-08-16T10:00:53.441Z,970.17
2022-08-16T10:01:53.436Z,970.13
2022-08-16T10:02:53.457Z,970.26
2022-08-16T10:04:01.785Z,970.24
2022-08-16T10:04:55.296Z,970.16
2022-08-16T10:05:53.386Z,970.19
2022-08-16T10:06:53.412Z,970.11
2022-08-16T10:07:56.639Z,970.20
2022-08-16T10:09:04.414Z,970.38
2022-08-16T10:09:56.043Z,970.22
2022-08-16T10:10:53.318Z,970.14
2022-08-16T10:11:53.523Z,970.13
2022-08-16T10:12:55.927Z,970.15
2022-08-16T10:13:53.295Z,970.14
2022-08-16T10:14:53.266Z,970.14
2022-08-16T10:15:55.449Z,970.16
2022-08-16T10:16:59.552Z,970.30
2022-08-16T10:18:01.521Z,970.26
2022-08-16T10:19:01.375Z,970.32
2022-08-16T10:19:54.229Z,970.24
2022-08-16T10:20:53.198Z,970.20
2022-08-16T10:21:56.315Z,970.24
2022-08-16T10:23:02.065Z,970.25
2022-08-16T10:23:54.810Z,970.25
2022-08-16T10:24:55.916Z,970.21
2022-08-16T10:27:18.379Z,970.18
2022-08-16T10:27:18.900Z,970.17
2022-08-16T10:28:05.883Z,970.13
2022-08-16T10:28:54.126Z,970.15
2022-08-16T10:30:00.317Z,970.03
2022-08-16T10:30:56.526Z,970.15
2022-08-16T10:31:53.461Z,970.13
2022-08-16T10:32:53.056Z,970.19
2022-08-16T10:33:53.052Z,970.26
2022-08-16T10:34:53.032Z,970.21
2022-08-16T10:35:53.030Z,970.13
2022-08-16T10:36:54.287Z,970.19
2022-08-16T10:37:53.009Z,970.23
2022-08-16T10:38:53.076Z,970.21
2022-08-16T10:39:53.003Z,970.25
2022-08-16T10:40:52.986Z,970.14
2022-08-16T10:41:52.956Z,970.12
2022-08-16T10:42:52.942Z,970.22
2022-08-16T10:43:53.045Z,970.17
2022-08-16T10:44:53.684Z,970.15
2022-08-16T10:45:57.299Z,970.11
2022-08-16T10:46:53.917Z,970.20
2022-08-16T10:48:00.671Z,970.08
2022-08-16T10:48:53.890Z,970.19
2022-08-16T10:49:52.856Z,970.11
2022-08-16T10:50:52.850Z,970.17
2022-08-16T10:52:01.175Z,970.20
2022-08-16T10:52:56.825Z,970.15
2022-08-16T10:53:52.834Z,970.29
2022-08-16T10:55:40.347Z,970.30
2022-08-16T10:55:57.834Z,970.33
2022-08-16T10:56:56.794Z,970.32
2022-08-16T10:57:52.763Z,970.28
2022-08-16T10:58:52.806Z,970.22
2022-08-16T10:59:58.273Z,970.17
2022-08-16T11:00:57.173Z,970.08
2022-08-16T11:02:58.725Z,970.17
2022-08-16T11:03:54.574Z,970.14
2022-08-16T11:05:09.394Z,970.09
2022-08-16T11:06:00.942Z,970.11
2022-08-16T11:07:43.026Z,970.04
2022-08-16T11:07:54.107Z,970.05
2022-08-16T11:09:20.989Z,970.00
2022-08-16T11:09:53.916Z,970.06
2022-08-16T11:11:07.057Z,969.94
2022-08-16T11:12:13.676Z,969.82
2022-08-16T11:12:53.600Z,970.09
2022-08-16T11:14:10.604Z,970.04
2022-08-16T11:15:55.908Z,969.91
2022-08-16T11:17:09.544Z,970.01
2022-08-16T11:19:03.222Z,969.88
2022-08-16T11:19:04.503Z,969.78
2022-08-16T11:20:36.638Z,969.78
2022-08-16T11:20:53.516Z,969.97
2022-08-16T11:22:52.465Z,969.94
2022-08-16T11:23:58.085Z,969.88
2022-08-16T11:26:16.266Z,969.86
2022-08-16T11:27:52.404Z,970.04
2022-08-16T11:29:52.904Z,969.94
2022-08-16T11:30:57.335Z,969.89
2022-08-16T11:31:53.948Z,969.97
2022-08-16T11:32:52.341Z,969.88
2022-08-16T11:33:52.840Z,969.87
2022-08-16T11:35:14.122Z,969.85
2022-08-16T11:36:53.853Z,969.66
2022-08-16T11:38:47.665Z,969.75
2022-08-16T11:38:57.587Z,969.74
2022-08-16T11:39:55.410Z,969.64
2022-08-16T11:40:53.432Z,969.62
2022-08-16T11:41:53.046Z,969.70
2022-08-16T11:42:52.230Z,969.58
2022-08-16T11:43:52.221Z,969.47
2022-08-16T11:44:56.283Z,969.64
2022-08-16T11:45:53.906Z,969.64
2022-08-16T11:46:52.188Z,969.73
2022-08-16T11:47:52.182Z,969.87
2022-08-16T11:48:52.171Z,969.80
2022-08-16T11:49:52.157Z,969.74
2022-08-16T11:50:52.136Z,969.70
2022-08-16T11:51:52.140Z,969.67
2022-08-16T11:52:52.114Z,969.53
2022-08-16T11:53:52.109Z,969.59
2022-08-16T11:54:53.935Z,969.54
2022-08-16T11:55:54.871Z,969.55
2022-08-16T11:56:56.888Z,969.61
2022-08-16T11:57:57.362Z,969.62
2022-08-16T11:58:57.005Z,969.64
2022-08-16T11:59:53.714Z,969.54
2022-08-16T12:00:53.497Z,969.54
2022-08-16T12:01:55.261Z,969.50
2022-08-16T12:02:53.044Z,969.57
2022-08-16T12:03:52.087Z,969.61
2022-08-16T12:04:52.160Z,969.63
2022-08-16T12:05:52.215Z,969.62
2022-08-16T12:06:53.559Z,969.62
2022-08-16T12:07:51.952Z,969.58
2022-08-16T12:08:51.943Z,969.52
2022-08-16T12:09:53.158Z,969.72
2022-08-16T12:10:51.918Z,969.62
2022-08-16T12:11:52.654Z,969.61
2022-08-16T12:12:52.108Z,969.57
2022-08-16T12:13:51.885Z,969.63
2022-08-16T12:14:59.800Z,969.62
2022-08-16T12:15:52.904Z,969.72
2022-08-16T12:16:55.564Z,969.71
2022-08-16T12:17:51.852Z,969.64
2022-08-16T12:18:51.841Z,969.63
2022-08-16T12:19:51.829Z,969.59
2022-08-16T12:20:51.809Z,969.55
2022-08-16T12:21:58.394Z,969.48
2022-08-16T12:22:52.813Z,969.48
2022-08-16T12:23:51.784Z,969.51
2022-08-16T12:24:52.547Z,969.56
2022-08-16T12:25:51.764Z,969.54
2022-08-16T12:26:51.751Z,969.48
2022-08-16T12:27:51.743Z,969.52
2022-08-16T12:28:54.763Z,969.37
2022-08-16T12:29:51.728Z,969.47
2022-08-16T12:30:51.703Z,969.47
2022-08-16T12:32:01.224Z,969.44
2022-08-16T12:32:54.581Z,969.46
2022-08-16T12:33:54.588Z,969.41
2022-08-16T12:34:53.215Z,969.40